Gubkin, Russia
Current Conditions -  °F | °C
As of 7:00 AM on Saturday 25 Oct 2014 (Local Time) from UUOB Reporting Station
Clear Clear  
Wind Chill:   Ceiling: Unl
Heat Index: 14°   Visibility: 6mi
Dew Point: 12°   Wind: 9mph
Humidity: 93%   Direction: 20°NNE
Pressure: 30.53"   Gusts: NA
Location:  51.28°N, 37.39°E
Report Text: UUOB 250400Z 02004MPS CAVOK M10/M11 Q1034 11090060 NOSIG
Loading
Personal Weather Stations






























Interactive Weather Map
Tropical Storm Tracking
New forecast layout! Learn more

10-Day Weather Forecast

Advertisements
Track Severe Weather on mobile